sensor_id;sensor_type;location;lat;lon;timestamp;temperature;humidity
41447;DHT22;27185;52.040;4.490;2023-01-16T00:01:44;5.90;99.90
41447;DHT22;27185;52.040;4.490;2023-01-16T00:04:29;5.90;99.90
41447;DHT22;27185;52.040;4.490;2023-01-16T00:07:15;6.00;99.90
41447;DHT22;27185;52.040;4.490;2023-01-16T00:10:01;6.00;99.90
41447;DHT22;27185;52.040;4.490;2023-01-16T00:12:48;6.00;99.90
41447;DHT22;27185;52.040;4.490;2023-01-16T00:15:34;6.00;99.90
41447;DHT22;27185;52.040;4.490;2023-01-16T00:18:19;6.00;99.90
41447;DHT22;27185;52.040;4.490;2023-01-16T00:21:05;6.00;99.90
41447;DHT22;27185;52.040;4.490;2023-01-16T00:23:50;6.00;99.90
41447;DHT22;27185;52.040;4.490;2023-01-16T00:26:36;6.00;99.90
41447;DHT22;27185;52.040;4.490;2023-01-16T00:29:22;6.00;99.90
41447;DHT22;27185;52.040;4.490;2023-01-16T00:32:07;6.00;99.90
41447;DHT22;27185;52.040;4.490;2023-01-16T00:34:55;6.00;99.90
41447;DHT22;27185;52.040;4.490;2023-01-16T00:37:41;6.00;99.90
41447;DHT22;27185;52.040;4.490;2023-01-16T00:40:27;6.10;99.90
41447;DHT22;27185;52.040;4.490;2023-01-16T00:43:12;6.10;99.90
41447;DHT22;27185;52.040;4.490;2023-01-16T00:45:58;6.20;99.90
41447;DHT22;27185;52.040;4.490;2023-01-16T00:48:43;6.20;99.90
41447;DHT22;27185;52.040;4.490;2023-01-16T00:51:29;6.20;99.90
41447;DHT22;27185;52.040;4.490;2023-01-16T00:54:15;6.20;99.90
41447;DHT22;27185;52.040;4.490;2023-01-16T00:57:00;6.20;99.90
41447;DHT22;27185;52.040;4.490;2023-01-16T00:59:46;6.10;99.90
41447;DHT22;27185;52.040;4.490;2023-01-16T01:02:31;6.10;99.90
41447;DHT22;27185;52.040;4.490;2023-01-16T01:05:17;6.10;99.90
41447;DHT22;27185;52.040;4.490;2023-01-16T01:08:03;6.10;99.90
41447;DHT22;27185;52.040;4.490;2023-01-16T01:10:49;6.00;99.90
41447;DHT22;27185;52.040;4.490;2023-01-16T01:13:35;6.00;99.90
41447;DHT22;27185;52.040;4.490;2023-01-16T01:16:21;5.90;99.90
41447;DHT22;27185;52.040;4.490;2023-01-16T01:19:07;5.90;99.90
41447;DHT22;27185;52.040;4.490;2023-01-16T01:21:53;5.90;99.90
41447;DHT22;27185;52.040;4.490;2023-01-16T01:24:38;5.90;99.90
41447;DHT22;27185;52.040;4.490;2023-01-16T01:27:24;5.90;99.90
41447;DHT22;27185;52.040;4.490;2023-01-16T01:30:10;6.00;99.90
41447;DHT22;27185;52.040;4.490;2023-01-16T01:32:55;6.00;99.90
41447;DHT22;27185;52.040;4.490;2023-01-16T01:35:41;6.00;99.90
41447;DHT22;27185;52.040;4.490;2023-01-16T01:38:27;6.00;99.90
41447;DHT22;27185;52.040;4.490;2023-01-16T01:41:13;6.00;99.90
41447;DHT22;27185;52.040;4.490;2023-01-16T01:43:59;6.00;99.90
41447;DHT22;27185;52.040;4.490;2023-01-16T01:46:46;6.00;99.90
41447;DHT22;27185;52.040;4.490;2023-01-16T01:49:32;6.00;99.90
41447;DHT22;27185;52.040;4.490;2023-01-16T01:52:19;6.00;99.90
41447;DHT22;27185;52.040;4.490;2023-01-16T01:55:08;6.10;99.90
41447;DHT22;27185;52.040;4.490;2023-01-16T01:57:59;6.10;99.90
41447;DHT22;27185;52.040;4.490;2023-01-16T02:00:50;6.10;99.90
41447;DHT22;27185;52.040;4.490;2023-01-16T02:03:41;6.20;99.90
41447;DHT22;27185;52.040;4.490;2023-01-16T02:06:37;6.20;99.90
41447;DHT22;27185;52.040;4.490;2023-01-16T02:09:25;6.20;99.90
41447;DHT22;27185;52.040;4.490;2023-01-16T02:12:14;6.30;99.90
41447;DHT22;27185;52.040;4.490;2023-01-16T02:15:01;6.40;99.90
41447;DHT22;27185;52.040;4.490;2023-01-16T02:17:47;6.40;99.90
41447;DHT22;27185;52.040;4.490;2023-01-16T02:37:21;6.40;99.90
41447;DHT22;27185;52.040;4.490;2023-01-16T02:43:46;6.40;99.90
41447;DHT22;27185;52.040;4.490;2023-01-16T02:46:51;6.40;99.90
41447;DHT22;27185;52.040;4.490;2023-01-16T02:49:48;6.40;99.90
41447;DHT22;27185;52.040;4.490;2023-01-16T02:52:40;6.40;99.90
41447;DHT22;27185;52.040;4.490;2023-01-16T02:55:33;6.30;99.90
41447;DHT22;27185;52.040;4.490;2023-01-16T02:58:21;6.30;99.90
41447;DHT22;27185;52.040;4.490;2023-01-16T03:01:08;6.30;99.90
41447;DHT22;27185;52.040;4.490;2023-01-16T03:06:49;6.20;99.90
41447;DHT22;27185;52.040;4.490;2023-01-16T03:14:10;6.20;99.90
41447;DHT22;27185;52.040;4.490;2023-01-16T03:22:25;6.10;99.90
41447;DHT22;27185;52.040;4.490;2023-01-16T03:25:28;6.10;99.90
41447;DHT22;27185;52.040;4.490;2023-01-16T03:34:29;6.10;99.90
41447;DHT22;27185;52.040;4.490;2023-01-16T03:37:24;6.00;99.90
41447;DHT22;27185;52.040;4.490;2023-01-16T03:40:17;6.00;99.90
41447;DHT22;27185;52.040;4.490;2023-01-16T03:43:11;6.00;99.90
41447;DHT22;27185;52.040;4.490;2023-01-16T03:46:03;6.00;99.90
41447;DHT22;27185;52.040;4.490;2023-01-16T03:49:01;6.00;99.90
41447;DHT22;27185;52.040;4.490;2023-01-16T03:51:51;6.00;99.90
41447;DHT22;27185;52.040;4.490;2023-01-16T03:57:37;6.00;99.90
41447;DHT22;27185;52.040;4.490;2023-01-16T04:00:31;6.00;99.90
41447;DHT22;27185;52.040;4.490;2023-01-16T04:03:27;6.00;99.90
41447;DHT22;27185;52.040;4.490;2023-01-16T04:06:21;6.00;99.90
41447;DHT22;27185;52.040;4.490;2023-01-16T04:12:28;6.20;99.90
41447;DHT22;27185;52.040;4.490;2023-01-16T04:15:16;6.10;99.90
41447;DHT22;27185;52.040;4.490;2023-01-16T04:18:02;6.20;99.90
41447;DHT22;27185;52.040;4.490;2023-01-16T04:20:49;6.20;99.90
41447;DHT22;27185;52.040;4.490;2023-01-16T04:23:35;6.20;99.90
41447;DHT22;27185;52.040;4.490;2023-01-16T04:26:21;6.20;99.90
41447;DHT22;27185;52.040;4.490;2023-01-16T04:29:06;6.20;99.90
41447;DHT22;27185;52.040;4.490;2023-01-16T04:31:52;6.20;99.90
41447;DHT22;27185;52.040;4.490;2023-01-16T04:34:38;6.10;99.90
41447;DHT22;27185;52.040;4.490;2023-01-16T04:37:23;6.10;99.90
41447;DHT22;27185;52.040;4.490;2023-01-16T04:40:10;6.10;99.90
41447;DHT22;27185;52.040;4.490;2023-01-16T04:42:55;6.10;99.90
41447;DHT22;27185;52.040;4.490;2023-01-16T04:45:41;6.10;99.90
41447;DHT22;27185;52.040;4.490;2023-01-16T04:48:27;6.10;99.90
41447;DHT22;27185;52.040;4.490;2023-01-16T04:51:12;6.10;99.90
41447;DHT22;27185;52.040;4.490;2023-01-16T04:53:58;6.10;99.90
41447;DHT22;27185;52.040;4.490;2023-01-16T04:56:43;6.10;99.90
41447;DHT22;27185;52.040;4.490;2023-01-16T04:59:29;6.20;99.90
41447;DHT22;27185;52.040;4.490;2023-01-16T05:02:15;6.20;99.90
41447;DHT22;27185;52.040;4.490;2023-01-16T05:05:00;6.20;99.90
41447;DHT22;27185;52.040;4.490;2023-01-16T05:07:46;6.20;99.90
41447;DHT22;27185;52.040;4.490;2023-01-16T05:10:51;6.30;99.90
41447;DHT22;27185;52.040;4.490;2023-01-16T05:13:37;6.30;99.90
41447;DHT22;27185;52.040;4.490;2023-01-16T05:16:23;6.30;99.90
41447;DHT22;27185;52.040;4.490;2023-01-16T05:19:09;6.40;99.90
41447;DHT22;27185;52.040;4.490;2023-01-16T05:21:55;6.40;99.90
41447;DHT22;27185;52.040;4.490;2023-01-16T05:24:41;6.40;99.90
41447;DHT22;27185;52.040;4.490;2023-01-16T05:27:26;6.40;99.90
41447;DHT22;27185;52.040;4.490;2023-01-16T05:30:12;6.40;99.90
41447;DHT22;27185;52.040;4.490;2023-01-16T05:32:58;6.40;99.90
41447;DHT22;27185;52.040;4.490;2023-01-16T05:35:45;6.50;99.90
41447;DHT22;27185;52.040;4.490;2023-01-16T05:38:31;6.50;99.90
41447;DHT22;27185;52.040;4.490;2023-01-16T05:41:17;6.50;99.90
41447;DHT22;27185;52.040;4.490;2023-01-16T05:44:02;6.50;99.90
41447;DHT22;27185;52.040;4.490;2023-01-16T05:46:49;6.50;99.90
41447;DHT22;27185;52.040;4.490;2023-01-16T05:49:36;6.50;99.90
41447;DHT22;27185;52.040;4.490;2023-01-16T05:52:21;6.50;99.90
41447;DHT22;27185;52.040;4.490;2023-01-16T05:55:07;6.60;99.90
41447;DHT22;27185;52.040;4.490;2023-01-16T05:57:53;6.50;99.90
41447;DHT22;27185;52.040;4.490;2023-01-16T06:00:39;6.50;99.90
41447;DHT22;27185;52.040;4.490;2023-01-16T06:03:25;6.60;99.90
41447;DHT22;27185;52.040;4.490;2023-01-16T06:06:11;6.50;99.90
41447;DHT22;27185;52.040;4.490;2023-01-16T06:08:56;6.50;99.90
41447;DHT22;27185;52.040;4.490;2023-01-16T06:11:42;6.60;99.90
41447;DHT22;27185;52.040;4.490;2023-01-16T06:14:27;6.60;99.90
41447;DHT22;27185;52.040;4.490;2023-01-16T06:17:14;6.60;99.90
41447;DHT22;27185;52.040;4.490;2023-01-16T06:19:59;6.60;99.90
41447;DHT22;27185;52.040;4.490;2023-01-16T06:22:45;6.60;99.90
41447;DHT22;27185;52.040;4.490;2023-01-16T06:25:31;6.60;99.90
41447;DHT22;27185;52.040;4.490;2023-01-16T06:28:16;6.60;99.90
41447;DHT22;27185;52.040;4.490;2023-01-16T06:31:03;6.60;99.90
41447;DHT22;27185;52.040;4.490;2023-01-16T06:33:48;6.60;99.90
41447;DHT22;27185;52.040;4.490;2023-01-16T06:36:34;6.60;99.90
41447;DHT22;27185;52.040;4.490;2023-01-16T06:39:19;6.60;99.90
41447;DHT22;27185;52.040;4.490;2023-01-16T06:42:05;6.60;99.90
41447;DHT22;27185;52.040;4.490;2023-01-16T06:44:51;6.60;99.90
41447;DHT22;27185;52.040;4.490;2023-01-16T06:47:36;6.70;99.90
41447;DHT22;27185;52.040;4.490;2023-01-16T06:50:22;6.70;99.90
41447;DHT22;27185;52.040;4.490;2023-01-16T06:53:08;6.70;99.90
41447;DHT22;27185;52.040;4.490;2023-01-16T06:55:54;6.70;99.90
41447;DHT22;27185;52.040;4.490;2023-01-16T06:58:39;6.70;99.90
41447;DHT22;27185;52.040;4.490;2023-01-16T07:01:26;6.70;99.90
41447;DHT22;27185;52.040;4.490;2023-01-16T07:04:12;6.70;99.90
41447;DHT22;27185;52.040;4.490;2023-01-16T07:06:57;6.70;99.90
41447;DHT22;27185;52.040;4.490;2023-01-16T07:09:43;6.70;99.90
41447;DHT22;27185;52.040;4.490;2023-01-16T07:12:29;6.70;99.90
41447;DHT22;27185;52.040;4.490;2023-01-16T07:15:15;6.70;99.90
41447;DHT22;27185;52.040;4.490;2023-01-16T07:18:19;6.70;99.90
41447;DHT22;27185;52.040;4.490;2023-01-16T07:21:25;6.70;99.90
41447;DHT22;27185;52.040;4.490;2023-01-16T07:24:33;6.80;99.90
41447;DHT22;27185;52.040;4.490;2023-01-16T07:27:20;6.80;99.90
41447;DHT22;27185;52.040;4.490;2023-01-16T07:30:07;6.80;99.90
41447;DHT22;27185;52.040;4.490;2023-01-16T07:32:53;6.70;99.90
41447;DHT22;27185;52.040;4.490;2023-01-16T07:35:39;6.70;99.90
41447;DHT22;27185;52.040;4.490;2023-01-16T07:38:25;6.70;99.90
41447;DHT22;27185;52.040;4.490;2023-01-16T07:41:10;6.70;99.90
41447;DHT22;27185;52.040;4.490;2023-01-16T07:43:56;6.70;99.90
41447;DHT22;27185;52.040;4.490;2023-01-16T07:46:41;6.70;99.90
41447;DHT22;27185;52.040;4.490;2023-01-16T07:49:27;6.80;99.90
41447;DHT22;27185;52.040;4.490;2023-01-16T07:52:14;6.70;99.90
41447;DHT22;27185;52.040;4.490;2023-01-16T07:55:00;6.70;99.90
41447;DHT22;27185;52.040;4.490;2023-01-16T07:57:45;6.70;99.90
41447;DHT22;27185;52.040;4.490;2023-01-16T08:00:31;6.70;99.90
41447;DHT22;27185;52.040;4.490;2023-01-16T08:03:17;6.70;99.90
41447;DHT22;27185;52.040;4.490;2023-01-16T08:06:03;6.70;99.90
41447;DHT22;27185;52.040;4.490;2023-01-16T08:08:48;6.80;99.90
41447;DHT22;27185;52.040;4.490;2023-01-16T08:11:34;6.70;99.90
41447;DHT22;27185;52.040;4.490;2023-01-16T08:14:23;6.70;99.90
41447;DHT22;27185;52.040;4.490;2023-01-16T08:17:09;6.80;99.90
41447;DHT22;27185;52.040;4.490;2023-01-16T08:19:55;6.70;99.90
41447;DHT22;27185;52.040;4.490;2023-01-16T08:22:45;6.70;99.90
41447;DHT22;27185;52.040;4.490;2023-01-16T08:25:30;6.70;99.90
41447;DHT22;27185;52.040;4.490;2023-01-16T08:28:16;6.80;99.90
41447;DHT22;27185;52.040;4.490;2023-01-16T08:31:10;6.80;99.90
41447;DHT22;27185;52.040;4.490;2023-01-16T08:33:57;6.80;99.90
41447;DHT22;27185;52.040;4.490;2023-01-16T08:36:42;6.80;99.90
41447;DHT22;27185;52.040;4.490;2023-01-16T08:39:28;6.80;99.90
41447;DHT22;27185;52.040;4.490;2023-01-16T08:42:13;6.80;99.90
41447;DHT22;27185;52.040;4.490;2023-01-16T08:45:18;6.80;99.90
41447;DHT22;27185;52.040;4.490;2023-01-16T08:48:24;6.80;99.90
41447;DHT22;27185;52.040;4.490;2023-01-16T08:51:29;6.90;99.90
41447;DHT22;27185;52.040;4.490;2023-01-16T08:54:15;6.90;99.90
41447;DHT22;27185;52.040;4.490;2023-01-16T08:57:00;6.90;99.90
41447;DHT22;27185;52.040;4.490;2023-01-16T08:59:46;6.80;99.90
41447;DHT22;27185;52.040;4.490;2023-01-16T09:02:31;6.90;99.90
41447;DHT22;27185;52.040;4.490;2023-01-16T09:05:19;6.90;99.90
41447;DHT22;27185;52.040;4.490;2023-01-16T09:08:05;6.90;99.90
41447;DHT22;27185;52.040;4.490;2023-01-16T09:10:50;6.90;99.90
41447;DHT22;27185;52.040;4.490;2023-01-16T09:13:54;6.90;99.90
41447;DHT22;27185;52.040;4.490;2023-01-16T09:16:45;6.90;99.90
41447;DHT22;27185;52.040;4.490;2023-01-16T09:19:31;7.00;99.90
41447;DHT22;27185;52.040;4.490;2023-01-16T09:22:17;7.00;99.90
41447;DHT22;27185;52.040;4.490;2023-01-16T09:25:03;7.00;99.90
41447;DHT22;27185;52.040;4.490;2023-01-16T09:27:48;7.00;99.90
41447;DHT22;27185;52.040;4.490;2023-01-16T09:30:34;7.00;99.90
41447;DHT22;27185;52.040;4.490;2023-01-16T09:33:19;7.00;99.90
41447;DHT22;27185;52.040;4.490;2023-01-16T09:36:05;7.10;99.90
41447;DHT22;27185;52.040;4.490;2023-01-16T09:38:51;7.10;99.90
41447;DHT22;27185;52.040;4.490;2023-01-16T09:41:49;7.10;99.90
41447;DHT22;27185;52.040;4.490;2023-01-16T09:45:04;7.10;99.90
41447;DHT22;27185;52.040;4.490;2023-01-16T09:47:55;7.10;99.90
41447;DHT22;27185;52.040;4.490;2023-01-16T09:50:49;7.10;99.90
41447;DHT22;27185;52.040;4.490;2023-01-16T09:53:44;7.20;99.90
41447;DHT22;27185;52.040;4.490;2023-01-16T09:56:54;7.20;99.90
41447;DHT22;27185;52.040;4.490;2023-01-16T10:00:02;7.20;99.90
41447;DHT22;27185;52.040;4.490;2023-01-16T10:02:50;7.20;99.90
41447;DHT22;27185;52.040;4.490;2023-01-16T10:06:09;7.20;99.90
41447;DHT22;27185;52.040;4.490;2023-01-16T10:11:59;7.30;99.90
41447;DHT22;27185;52.040;4.490;2023-01-16T10:17:59;7.30;99.90
41447;DHT22;27185;52.040;4.490;2023-01-16T10:24:49;7.30;99.90
41447;DHT22;27185;52.040;4.490;2023-01-16T10:30:32;7.30;99.90
41447;DHT22;27185;52.040;4.490;2023-01-16T10:33:28;7.30;99.90
41447;DHT22;27185;52.040;4.490;2023-01-16T10:36:17;7.40;99.90
41447;DHT22;27185;52.040;4.490;2023-01-16T10:39:04;7.40;99.90
41447;DHT22;27185;52.040;4.490;2023-01-16T10:41:51;7.40;99.90
41447;DHT22;27185;52.040;4.490;2023-01-16T10:48:10;7.40;99.90
41447;DHT22;27185;52.040;4.490;2023-01-16T10:51:15;7.40;99.90
41447;DHT22;27185;52.040;4.490;2023-01-16T10:54:01;7.40;99.90
41447;DHT22;27185;52.040;4.490;2023-01-16T10:56:47;7.50;99.90
41447;DHT22;27185;52.040;4.490;2023-01-16T10:59:34;7.50;99.90
41447;DHT22;27185;52.040;4.490;2023-01-16T11:05:34;7.60;99.90
41447;DHT22;27185;52.040;4.490;2023-01-16T11:08:22;7.60;99.90
41447;DHT22;27185;52.040;4.490;2023-01-16T11:11:11;7.60;99.90
41447;DHT22;27185;52.040;4.490;2023-01-16T11:14:24;7.60;99.90
41447;DHT22;27185;52.040;4.490;2023-01-16T11:17:34;7.60;99.90
41447;DHT22;27185;52.040;4.490;2023-01-16T11:20:40;7.70;99.90
41447;DHT22;27185;52.040;4.490;2023-01-16T11:23:37;7.70;99.90
41447;DHT22;27185;52.040;4.490;2023-01-16T11:26:23;7.80;99.90
41447;DHT22;27185;52.040;4.490;2023-01-16T11:29:16;7.80;99.90
41447;DHT22;27185;52.040;4.490;2023-01-16T11:32:11;7.90;99.90
41447;DHT22;27185;52.040;4.490;2023-01-16T11:34:57;7.90;99.90
41447;DHT22;27185;52.040;4.490;2023-01-16T11:37:45;7.90;99.90
41447;DHT22;27185;52.040;4.490;2023-01-16T11:40:45;8.00;99.90
41447;DHT22;27185;52.040;4.490;2023-01-16T11:43:31;8.10;99.90
41447;DHT22;27185;52.040;4.490;2023-01-16T11:46:41;8.20;99.90
41447;DHT22;27185;52.040;4.490;2023-01-16T11:52:37;8.30;99.90
41447;DHT22;27185;52.040;4.490;2023-01-16T11:55:30;8.40;99.90
41447;DHT22;27185;52.040;4.490;2023-01-16T12:01:25;8.50;99.90
41447;DHT22;27185;52.040;4.490;2023-01-16T12:04:17;8.60;99.90
41447;DHT22;27185;52.040;4.490;2023-01-16T12:07:14;8.60;99.90
41447;DHT22;27185;52.040;4.490;2023-01-16T12:10:05;8.70;99.90
41447;DHT22;27185;52.040;4.490;2023-01-16T12:13:07;8.70;99.90
41447;DHT22;27185;52.040;4.490;2023-01-16T12:23:28;8.90;99.90
41447;DHT22;27185;52.040;4.490;2023-01-16T12:26:28;9.00;99.90
41447;DHT22;27185;52.040;4.490;2023-01-16T12:29:24;9.00;99.90
41447;DHT22;27185;52.040;4.490;2023-01-16T12:35:32;9.20;99.90
41447;DHT22;27185;52.040;4.490;2023-01-16T12:38:27;9.20;99.90
41447;DHT22;27185;52.040;4.490;2023-01-16T12:41:23;9.30;99.90
41447;DHT22;27185;52.040;4.490;2023-01-16T12:54:17;9.10;99.90
41447;DHT22;27185;52.040;4.490;2023-01-16T12:59:59;9.10;99.90
41447;DHT22;27185;52.040;4.490;2023-01-16T13:02:59;9.10;99.90
41447;DHT22;27185;52.040;4.490;2023-01-16T13:05:47;9.10;99.90
41447;DHT22;27185;52.040;4.490;2023-01-16T13:08:55;9.00;99.90
41447;DHT22;27185;52.040;4.490;2023-01-16T13:12:20;9.10;99.90
41447;DHT22;27185;52.040;4.490;2023-01-16T13:15:30;9.00;99.90
41447;DHT22;27185;52.040;4.490;2023-01-16T13:18:26;9.00;99.90
41447;DHT22;27185;52.040;4.490;2023-01-16T13:21:25;9.00;99.90
41447;DHT22;27185;52.040;4.490;2023-01-16T13:24:22;9.00;99.90
41447;DHT22;27185;52.040;4.490;2023-01-16T13:27:15;9.00;99.90
41447;DHT22;27185;52.040;4.490;2023-01-16T13:30:05;8.90;99.90
41447;DHT22;27185;52.040;4.490;2023-01-16T13:33:09;8.90;99.90
41447;DHT22;27185;52.040;4.490;2023-01-16T13:42:07;8.80;99.90
41447;DHT22;27185;52.040;4.490;2023-01-16T13:44:58;8.80;99.90
41447;DHT22;27185;52.040;4.490;2023-01-16T13:48:03;8.80;99.90
41447;DHT22;27185;52.040;4.490;2023-01-16T13:50:58;8.80;99.90
41447;DHT22;27185;52.040;4.490;2023-01-16T13:53:51;8.80;99.90
41447;DHT22;27185;52.040;4.490;2023-01-16T13:56:39;8.80;99.90
41447;DHT22;27185;52.040;4.490;2023-01-16T14:02:43;8.80;99.90
41447;DHT22;27185;52.040;4.490;2023-01-16T14:08:44;8.90;99.90
41447;DHT22;27185;52.040;4.490;2023-01-16T14:15:18;8.90;99.90
41447;DHT22;27185;52.040;4.490;2023-01-16T14:18:36;8.90;99.90
41447;DHT22;27185;52.040;4.490;2023-01-16T14:24:24;8.90;99.90
41447;DHT22;27185;52.040;4.490;2023-01-16T14:27:16;8.90;99.90
41447;DHT22;27185;52.040;4.490;2023-01-16T14:30:14;8.90;99.90
41447;DHT22;27185;52.040;4.490;2023-01-16T14:33:03;8.90;99.90
41447;DHT22;27185;52.040;4.490;2023-01-16T14:35:54;8.90;99.90
41447;DHT22;27185;52.040;4.490;2023-01-16T14:38:44;8.80;99.90
41447;DHT22;27185;52.040;4.490;2023-01-16T14:41:32;8.80;99.90
41447;DHT22;27185;52.040;4.490;2023-01-16T14:51:33;8.80;99.90
41447;DHT22;27185;52.040;4.490;2023-01-16T14:54:38;8.80;99.90
41447;DHT22;27185;52.040;4.490;2023-01-16T14:57:43;8.70;99.90
41447;DHT22;27185;52.040;4.490;2023-01-16T15:00:30;8.70;99.90
41447;DHT22;27185;52.040;4.490;2023-01-16T15:03:22;8.70;99.90
41447;DHT22;27185;52.040;4.490;2023-01-16T15:06:09;8.60;99.90
41447;DHT22;27185;52.040;4.490;2023-01-16T15:08:55;8.60;99.90
41447;DHT22;27185;52.040;4.490;2023-01-16T15:11:47;8.50;99.90
41447;DHT22;27185;52.040;4.490;2023-01-16T15:14:36;8.50;99.90
41447;DHT22;27185;52.040;4.490;2023-01-16T15:17:35;8.30;99.90
41447;DHT22;27185;52.040;4.490;2023-01-16T15:20:53;8.20;99.90
41447;DHT22;27185;52.040;4.490;2023-01-16T15:23:58;8.00;99.90
41447;DHT22;27185;52.040;4.490;2023-01-16T15:27:02;7.70;99.90
41447;DHT22;27185;52.040;4.490;2023-01-16T15:30:07;7.60;99.90
41447;DHT22;27185;52.040;4.490;2023-01-16T15:33:02;7.50;99.90
41447;DHT22;27185;52.040;4.490;2023-01-16T15:39:39;7.30;99.90
41447;DHT22;27185;52.040;4.490;2023-01-16T15:42:27;7.30;99.90
41447;DHT22;27185;52.040;4.490;2023-01-16T15:45:32;7.30;99.90
41447;DHT22;27185;52.040;4.490;2023-01-16T15:51:28;7.20;99.90
41447;DHT22;27185;52.040;4.490;2023-01-16T15:54:14;7.20;99.90
41447;DHT22;27185;52.040;4.490;2023-01-16T15:57:02;7.20;99.90
41447;DHT22;27185;52.040;4.490;2023-01-16T15:59:53;7.20;99.90
41447;DHT22;27185;52.040;4.490;2023-01-16T16:02:42;7.20;99.90
41447;DHT22;27185;52.040;4.490;2023-01-16T16:05:28;7.10;99.90
41447;DHT22;27185;52.040;4.490;2023-01-16T16:08:17;7.00;99.90
41447;DHT22;27185;52.040;4.490;2023-01-16T16:11:06;7.00;99.90
41447;DHT22;27185;52.040;4.490;2023-01-16T16:17:34;6.80;99.90
41447;DHT22;27185;52.040;4.490;2023-01-16T16:20:41;6.80;99.90
41447;DHT22;27185;52.040;4.490;2023-01-16T16:23:28;6.70;99.90
41447;DHT22;27185;52.040;4.490;2023-01-16T16:26:14;6.70;99.90
41447;DHT22;27185;52.040;4.490;2023-01-16T16:29:03;6.60;99.90
41447;DHT22;27185;52.040;4.490;2023-01-16T16:31:49;6.60;99.90
41447;DHT22;27185;52.040;4.490;2023-01-16T16:34:35;6.60;99.90
41447;DHT22;27185;52.040;4.490;2023-01-16T16:37:22;6.60;99.90
41447;DHT22;27185;52.040;4.490;2023-01-16T16:42:56;6.60;99.90
41447;DHT22;27185;52.040;4.490;2023-01-16T16:45:42;6.60;99.90
41447;DHT22;27185;52.040;4.490;2023-01-16T16:48:30;6.60;99.90
41447;DHT22;27185;52.040;4.490;2023-01-16T16:51:36;6.60;99.90
41447;DHT22;27185;52.040;4.490;2023-01-16T16:54:26;6.70;99.90
41447;DHT22;27185;52.040;4.490;2023-01-16T16:57:12;6.70;99.90
41447;DHT22;27185;52.040;4.490;2023-01-16T16:59:57;6.70;99.90
41447;DHT22;27185;52.040;4.490;2023-01-16T17:02:45;6.70;99.90
41447;DHT22;27185;52.040;4.490;2023-01-16T17:05:31;6.70;99.90
41447;DHT22;27185;52.040;4.490;2023-01-16T17:08:21;6.70;99.90
41447;DHT22;27185;52.040;4.490;2023-01-16T17:11:10;6.70;99.90
41447;DHT22;27185;52.040;4.490;2023-01-16T17:13:56;6.70;99.90
41447;DHT22;27185;52.040;4.490;2023-01-16T17:16:41;6.70;99.90
41447;DHT22;27185;52.040;4.490;2023-01-16T17:19:31;6.70;99.90
41447;DHT22;27185;52.040;4.490;2023-01-16T17:22:17;6.70;99.90
41447;DHT22;27185;52.040;4.490;2023-01-16T17:25:02;6.70;99.90
41447;DHT22;27185;52.040;4.490;2023-01-16T17:27:49;6.70;99.90
41447;DHT22;27185;52.040;4.490;2023-01-16T17:30:36;6.70;99.90
41447;DHT22;27185;52.040;4.490;2023-01-16T17:33:22;6.60;99.90
41447;DHT22;27185;52.040;4.490;2023-01-16T17:36:15;6.70;99.90
41447;DHT22;27185;52.040;4.490;2023-01-16T17:39:02;6.60;99.90
41447;DHT22;27185;52.040;4.490;2023-01-16T17:41:47;6.60;99.90
41447;DHT22;27185;52.040;4.490;2023-01-16T17:44:33;6.60;99.90
41447;DHT22;27185;52.040;4.490;2023-01-16T17:47:37;6.60;99.90
41447;DHT22;27185;52.040;4.490;2023-01-16T17:50:22;6.60;99.90
41447;DHT22;27185;52.040;4.490;2023-01-16T17:53:11;6.60;99.90
41447;DHT22;27185;52.040;4.490;2023-01-16T17:55:59;6.60;99.90
41447;DHT22;27185;52.040;4.490;2023-01-16T17:58:47;6.60;99.90
41447;DHT22;27185;52.040;4.490;2023-01-16T18:01:42;6.60;99.90
41447;DHT22;27185;52.040;4.490;2023-01-16T18:04:28;6.60;99.90
41447;DHT22;27185;52.040;4.490;2023-01-16T18:07:18;6.60;99.90
41447;DHT22;27185;52.040;4.490;2023-01-16T18:10:04;6.60;99.90
41447;DHT22;27185;52.040;4.490;2023-01-16T18:12:50;6.60;99.90
41447;DHT22;27185;52.040;4.490;2023-01-16T18:15:55;6.70;99.90
41447;DHT22;27185;52.040;4.490;2023-01-16T18:18:59;6.60;99.90
41447;DHT22;27185;52.040;4.490;2023-01-16T18:21:45;6.70;99.90
41447;DHT22;27185;52.040;4.490;2023-01-16T18:24:45;6.70;99.90
41447;DHT22;27185;52.040;4.490;2023-01-16T18:27:31;6.70;99.90
41447;DHT22;27185;52.040;4.490;2023-01-16T18:30:16;6.70;99.90
41447;DHT22;27185;52.040;4.490;2023-01-16T18:33:02;6.80;99.90
41447;DHT22;27185;52.040;4.490;2023-01-16T18:35:48;6.80;99.90
41447;DHT22;27185;52.040;4.490;2023-01-16T18:38:33;6.80;99.90
41447;DHT22;27185;52.040;4.490;2023-01-16T18:41:37;6.80;99.90
41447;DHT22;27185;52.040;4.490;2023-01-16T18:44:41;6.90;99.90
41447;DHT22;27185;52.040;4.490;2023-01-16T18:47:46;6.90;99.90
41447;DHT22;27185;52.040;4.490;2023-01-16T18:50:50;6.90;99.90
41447;DHT22;27185;52.040;4.490;2023-01-16T18:53:54;7.00;99.90
41447;DHT22;27185;52.040;4.490;2023-01-16T18:56:59;7.00;99.90
41447;DHT22;27185;52.040;4.490;2023-01-16T19:00:15;7.00;99.90
41447;DHT22;27185;52.040;4.490;2023-01-16T19:03:20;7.00;99.90
41447;DHT22;27185;52.040;4.490;2023-01-16T19:06:06;7.00;99.90
41447;DHT22;27185;52.040;4.490;2023-01-16T19:08:52;7.00;99.90
41447;DHT22;27185;52.040;4.490;2023-01-16T19:11:37;7.10;99.90
41447;DHT22;27185;52.040;4.490;2023-01-16T19:14:25;7.10;99.90
41447;DHT22;27185;52.040;4.490;2023-01-16T19:17:11;7.10;99.90
41447;DHT22;27185;52.040;4.490;2023-01-16T19:19:57;7.10;99.90
41447;DHT22;27185;52.040;4.490;2023-01-16T19:22:43;7.10;99.90
41447;DHT22;27185;52.040;4.490;2023-01-16T19:25:29;7.10;99.90
41447;DHT22;27185;52.040;4.490;2023-01-16T19:28:14;7.10;99.90
41447;DHT22;27185;52.040;4.490;2023-01-16T19:31:00;7.00;99.90
41447;DHT22;27185;52.040;4.490;2023-01-16T19:33:46;7.00;99.90
41447;DHT22;27185;52.040;4.490;2023-01-16T19:36:31;7.00;99.90
41447;DHT22;27185;52.040;4.490;2023-01-16T19:39:17;7.00;99.90
41447;DHT22;27185;52.040;4.490;2023-01-16T19:42:03;7.00;99.90
41447;DHT22;27185;52.040;4.490;2023-01-16T19:45:08;7.00;99.90
41447;DHT22;27185;52.040;4.490;2023-01-16T19:48:12;7.00;99.90
41447;DHT22;27185;52.040;4.490;2023-01-16T19:51:02;6.90;99.90
41447;DHT22;27185;52.040;4.490;2023-01-16T19:53:51;6.90;99.90
41447;DHT22;27185;52.040;4.490;2023-01-16T19:56:38;6.80;99.90
41447;DHT22;27185;52.040;4.490;2023-01-16T19:59:25;6.70;99.90
41447;DHT22;27185;52.040;4.490;2023-01-16T20:02:11;6.60;99.90
41447;DHT22;27185;52.040;4.490;2023-01-16T20:04:56;6.60;99.90
41447;DHT22;27185;52.040;4.490;2023-01-16T20:07:42;6.50;99.90
41447;DHT22;27185;52.040;4.490;2023-01-16T20:10:29;6.40;99.90
41447;DHT22;27185;52.040;4.490;2023-01-16T20:13:15;6.40;99.90
41447;DHT22;27185;52.040;4.490;2023-01-16T20:16:02;6.30;99.90
41447;DHT22;27185;52.040;4.490;2023-01-16T20:18:48;6.30;99.90
41447;DHT22;27185;52.040;4.490;2023-01-16T20:21:36;6.30;99.90
41447;DHT22;27185;52.040;4.490;2023-01-16T20:24:22;6.30;99.90
41447;DHT22;27185;52.040;4.490;2023-01-16T20:27:08;6.30;99.90